sensor_id;sensor_type;location;lat;lon;timestamp;P1;durP1;ratioP1;P2;durP2;ratioP2
42538;SDS011;28173;51.376;6.760;2022-10-13T00:01:06;20.98;;;12.48;;
42538;SDS011;28173;51.376;6.760;2022-10-13T00:03:37;16.52;;;11.85;;
42538;SDS011;28173;51.376;6.760;2022-10-13T00:06:19;20.25;;;11.57;;
42538;SDS011;28173;51.376;6.760;2022-10-13T00:08:48;22.80;;;11.85;;
42538;SDS011;28173;51.376;6.760;2022-10-13T00:11:18;19.17;;;11.68;;
42538;SDS011;28173;51.376;6.760;2022-10-13T00:13:50;17.88;;;10.90;;
42538;SDS011;28173;51.376;6.760;2022-10-13T00:16:20;19.23;;;10.95;;
42538;SDS011;28173;51.376;6.760;2022-10-13T00:18:47;20.63;;;11.30;;
42538;SDS011;28173;51.376;6.760;2022-10-13T00:21:18;20.27;;;11.82;;
42538;SDS011;28173;51.376;6.760;2022-10-13T00:24:19;20.52;;;11.05;;
42538;SDS011;28173;51.376;6.760;2022-10-13T00:26:48;22.10;;;11.10;;
42538;SDS011;28173;51.376;6.760;2022-10-13T00:29:17;17.88;;;11.38;;
42538;SDS011;28173;51.376;6.760;2022-10-13T00:32:07;21.63;;;11.30;;
42538;SDS011;28173;51.376;6.760;2022-10-13T00:34:36;16.70;;;10.82;;
42538;SDS011;28173;51.376;6.760;2022-10-13T00:37:03;16.40;;;10.35;;
42538;SDS011;28173;51.376;6.760;2022-10-13T00:39:30;16.35;;;9.82;;
42538;SDS011;28173;51.376;6.760;2022-10-13T00:41:58;18.17;;;10.23;;
42538;SDS011;28173;51.376;6.760;2022-10-13T00:47:49;17.48;;;10.70;;
42538;SDS011;28173;51.376;6.760;2022-10-13T00:50:19;22.73;;;11.05;;
42538;SDS011;28173;51.376;6.760;2022-10-13T00:52:53;16.03;;;10.47;;
42538;SDS011;28173;51.376;6.760;2022-10-13T00:55:22;20.55;;;10.38;;
42538;SDS011;28173;51.376;6.760;2022-10-13T00:57:54;17.80;;;10.48;;
42538;SDS011;28173;51.376;6.760;2022-10-13T01:00:28;16.23;;;10.93;;
42538;SDS011;28173;51.376;6.760;2022-10-13T01:02:57;26.15;;;11.20;;
42538;SDS011;28173;51.376;6.760;2022-10-13T01:05:24;20.02;;;11.18;;
42538;SDS011;28173;51.376;6.760;2022-10-13T01:07:54;17.83;;;10.13;;
42538;SDS011;28173;51.376;6.760;2022-10-13T01:10:56;14.82;;;10.00;;
42538;SDS011;28173;51.376;6.760;2022-10-13T01:16:27;17.65;;;10.63;;
42538;SDS011;28173;51.376;6.760;2022-10-13T01:22:31;20.50;;;10.60;;
42538;SDS011;28173;51.376;6.760;2022-10-13T01:28:05;18.30;;;10.95;;
42538;SDS011;28173;51.376;6.760;2022-10-13T01:30:44;18.08;;;10.30;;
42538;SDS011;28173;51.376;6.760;2022-10-13T01:41:33;21.30;;;10.48;;
42538;SDS011;28173;51.376;6.760;2022-10-13T01:46:53;24.95;;;11.23;;
42538;SDS011;28173;51.376;6.760;2022-10-13T01:49:25;19.33;;;10.73;;
42538;SDS011;28173;51.376;6.760;2022-10-13T01:51:53;19.02;;;9.95;;
42538;SDS011;28173;51.376;6.760;2022-10-13T01:54:20;16.45;;;10.77;;
42538;SDS011;28173;51.376;6.760;2022-10-13T01:56:51;21.23;;;11.07;;
42538;SDS011;28173;51.376;6.760;2022-10-13T01:59:21;16.95;;;10.88;;
42538;SDS011;28173;51.376;6.760;2022-10-13T02:10:22;19.33;;;10.48;;
42538;SDS011;28173;51.376;6.760;2022-10-13T02:13:06;17.67;;;10.63;;
42538;SDS011;28173;51.376;6.760;2022-10-13T02:15:37;18.38;;;10.60;;
42538;SDS011;28173;51.376;6.760;2022-10-13T02:18:09;18.85;;;10.20;;
42538;SDS011;28173;51.376;6.760;2022-10-13T02:20:39;18.98;;;10.82;;
42538;SDS011;28173;51.376;6.760;2022-10-13T02:23:12;21.10;;;11.45;;
42538;SDS011;28173;51.376;6.760;2022-10-13T02:25:39;23.45;;;11.23;;
42538;SDS011;28173;51.376;6.760;2022-10-13T02:28:07;17.25;;;11.10;;
42538;SDS011;28173;51.376;6.760;2022-10-13T02:30:40;17.88;;;10.18;;
42538;SDS011;28173;51.376;6.760;2022-10-13T02:33:07;14.65;;;10.93;;
42538;SDS011;28173;51.376;6.760;2022-10-13T02:35:35;17.92;;;11.25;;
42538;SDS011;28173;51.376;6.760;2022-10-13T02:38:02;20.13;;;10.50;;
42538;SDS011;28173;51.376;6.760;2022-10-13T02:40:29;17.90;;;11.10;;
42538;SDS011;28173;51.376;6.760;2022-10-13T02:42:55;15.85;;;10.48;;
42538;SDS011;28173;51.376;6.760;2022-10-13T02:45:22;19.35;;;10.60;;
42538;SDS011;28173;51.376;6.760;2022-10-13T02:47:51;16.42;;;10.68;;
42538;SDS011;28173;51.376;6.760;2022-10-13T02:50:18;17.75;;;11.00;;
42538;SDS011;28173;51.376;6.760;2022-10-13T02:52:44;14.88;;;10.40;;
42538;SDS011;28173;51.376;6.760;2022-10-13T02:55:11;15.32;;;10.40;;
42538;SDS011;28173;51.376;6.760;2022-10-13T02:57:41;16.98;;;11.10;;
42538;SDS011;28173;51.376;6.760;2022-10-13T03:00:08;19.75;;;10.77;;
42538;SDS011;28173;51.376;6.760;2022-10-13T03:02:35;23.27;;;10.95;;
42538;SDS011;28173;51.376;6.760;2022-10-13T03:05:02;16.88;;;11.20;;
42538;SDS011;28173;51.376;6.760;2022-10-13T03:07:29;15.63;;;10.95;;
42538;SDS011;28173;51.376;6.760;2022-10-13T03:09:55;19.65;;;10.80;;
42538;SDS011;28173;51.376;6.760;2022-10-13T03:12:22;18.33;;;10.82;;
42538;SDS011;28173;51.376;6.760;2022-10-13T03:14:49;18.63;;;11.25;;
42538;SDS011;28173;51.376;6.760;2022-10-13T03:17:16;19.50;;;10.88;;
42538;SDS011;28173;51.376;6.760;2022-10-13T03:19:42;16.08;;;10.35;;
42538;SDS011;28173;51.376;6.760;2022-10-13T03:22:11;19.25;;;10.90;;
42538;SDS011;28173;51.376;6.760;2022-10-13T03:24:40;20.63;;;10.70;;
42538;SDS011;28173;51.376;6.760;2022-10-13T03:27:07;19.48;;;11.00;;
42538;SDS011;28173;51.376;6.760;2022-10-13T03:29:34;23.23;;;11.52;;
42538;SDS011;28173;51.376;6.760;2022-10-13T03:32:01;16.88;;;10.95;;
42538;SDS011;28173;51.376;6.760;2022-10-13T03:34:27;21.45;;;10.02;;
42538;SDS011;28173;51.376;6.760;2022-10-13T03:36:54;15.50;;;10.80;;
42538;SDS011;28173;51.376;6.760;2022-10-13T03:39:21;16.27;;;10.23;;
42538;SDS011;28173;51.376;6.760;2022-10-13T03:41:47;17.35;;;11.02;;
42538;SDS011;28173;51.376;6.760;2022-10-13T03:44:14;17.98;;;10.63;;
42538;SDS011;28173;51.376;6.760;2022-10-13T03:46:41;17.33;;;10.80;;
42538;SDS011;28173;51.376;6.760;2022-10-13T03:49:08;19.55;;;10.75;;
42538;SDS011;28173;51.376;6.760;2022-10-13T03:51:36;20.20;;;11.15;;
42538;SDS011;28173;51.376;6.760;2022-10-13T03:54:03;19.38;;;10.88;;
42538;SDS011;28173;51.376;6.760;2022-10-13T03:56:29;20.95;;;11.02;;
42538;SDS011;28173;51.376;6.760;2022-10-13T03:58:57;20.90;;;11.32;;
42538;SDS011;28173;51.376;6.760;2022-10-13T04:01:25;15.35;;;10.70;;
42538;SDS011;28173;51.376;6.760;2022-10-13T04:03:53;17.13;;;10.82;;
42538;SDS011;28173;51.376;6.760;2022-10-13T04:06:21;18.85;;;11.18;;
42538;SDS011;28173;51.376;6.760;2022-10-13T04:08:48;22.73;;;11.45;;
42538;SDS011;28173;51.376;6.760;2022-10-13T04:11:15;15.00;;;10.05;;
42538;SDS011;28173;51.376;6.760;2022-10-13T04:13:43;16.85;;;10.00;;
42538;SDS011;28173;51.376;6.760;2022-10-13T04:16:20;20.88;;;11.63;;
42538;SDS011;28173;51.376;6.760;2022-10-13T04:18:50;16.90;;;10.45;;
42538;SDS011;28173;51.376;6.760;2022-10-13T04:21:18;19.52;;;11.20;;
42538;SDS011;28173;51.376;6.760;2022-10-13T04:23:45;17.58;;;10.85;;
42538;SDS011;28173;51.376;6.760;2022-10-13T04:26:19;18.25;;;11.20;;
42538;SDS011;28173;51.376;6.760;2022-10-13T04:31:14;19.30;;;10.13;;
42538;SDS011;28173;51.376;6.760;2022-10-13T04:33:41;16.98;;;10.80;;
42538;SDS011;28173;51.376;6.760;2022-10-13T04:36:09;18.85;;;11.65;;
42538;SDS011;28173;51.376;6.760;2022-10-13T04:38:36;18.00;;;11.32;;
42538;SDS011;28173;51.376;6.760;2022-10-13T04:41:04;18.20;;;10.93;;
42538;SDS011;28173;51.376;6.760;2022-10-13T04:43:31;22.20;;;11.73;;
42538;SDS011;28173;51.376;6.760;2022-10-13T04:46:03;18.70;;;11.27;;
42538;SDS011;28173;51.376;6.760;2022-10-13T04:48:32;17.15;;;11.63;;
42538;SDS011;28173;51.376;6.760;2022-10-13T04:51:02;16.38;;;11.02;;
42538;SDS011;28173;51.376;6.760;2022-10-13T04:53:30;20.02;;;10.43;;
42538;SDS011;28173;51.376;6.760;2022-10-13T04:56:03;19.98;;;11.00;;
42538;SDS011;28173;51.376;6.760;2022-10-13T04:58:34;23.90;;;11.35;;
42538;SDS011;28173;51.376;6.760;2022-10-13T05:01:02;20.20;;;10.80;;
42538;SDS011;28173;51.376;6.760;2022-10-13T05:03:30;17.90;;;10.88;;
42538;SDS011;28173;51.376;6.760;2022-10-13T05:05:57;19.73;;;11.43;;
42538;SDS011;28173;51.376;6.760;2022-10-13T05:08:24;16.92;;;10.30;;
42538;SDS011;28173;51.376;6.760;2022-10-13T05:10:54;15.35;;;10.80;;
42538;SDS011;28173;51.376;6.760;2022-10-13T05:13:22;15.52;;;11.02;;
42538;SDS011;28173;51.376;6.760;2022-10-13T05:15:50;17.08;;;10.85;;
42538;SDS011;28173;51.376;6.760;2022-10-13T05:18:20;14.50;;;10.63;;
42538;SDS011;28173;51.376;6.760;2022-10-13T05:20:46;21.55;;;11.18;;
42538;SDS011;28173;51.376;6.760;2022-10-13T05:23:13;19.13;;;10.65;;
42538;SDS011;28173;51.376;6.760;2022-10-13T05:25:41;19.50;;;11.57;;
42538;SDS011;28173;51.376;6.760;2022-10-13T05:28:11;14.75;;;10.38;;
42538;SDS011;28173;51.376;6.760;2022-10-13T05:30:38;19.30;;;11.57;;
42538;SDS011;28173;51.376;6.760;2022-10-13T05:33:04;17.80;;;10.50;;
42538;SDS011;28173;51.376;6.760;2022-10-13T05:35:31;18.33;;;10.77;;
42538;SDS011;28173;51.376;6.760;2022-10-13T05:37:57;18.90;;;11.13;;
42538;SDS011;28173;51.376;6.760;2022-10-13T05:40:24;17.42;;;11.20;;
42538;SDS011;28173;51.376;6.760;2022-10-13T05:42:58;16.65;;;10.68;;
42538;SDS011;28173;51.376;6.760;2022-10-13T05:45:25;17.20;;;10.63;;
42538;SDS011;28173;51.376;6.760;2022-10-13T05:47:53;17.63;;;10.65;;
42538;SDS011;28173;51.376;6.760;2022-10-13T05:50:20;16.73;;;11.35;;
42538;SDS011;28173;51.376;6.760;2022-10-13T05:52:46;18.27;;;11.43;;
42538;SDS011;28173;51.376;6.760;2022-10-13T05:55:13;18.92;;;11.35;;
42538;SDS011;28173;51.376;6.760;2022-10-13T05:57:42;21.95;;;11.45;;
42538;SDS011;28173;51.376;6.760;2022-10-13T06:00:12;17.40;;;10.95;;
42538;SDS011;28173;51.376;6.760;2022-10-13T06:02:45;19.98;;;11.20;;
42538;SDS011;28173;51.376;6.760;2022-10-13T06:05:17;20.40;;;11.15;;
42538;SDS011;28173;51.376;6.760;2022-10-13T06:07:48;19.58;;;11.55;;
42538;SDS011;28173;51.376;6.760;2022-10-13T06:10:15;17.15;;;10.30;;
42538;SDS011;28173;51.376;6.760;2022-10-13T06:12:41;17.60;;;10.57;;
42538;SDS011;28173;51.376;6.760;2022-10-13T06:15:09;18.73;;;11.38;;
42538;SDS011;28173;51.376;6.760;2022-10-13T06:17:59;19.00;;;10.43;;
42538;SDS011;28173;51.376;6.760;2022-10-13T06:20:26;18.98;;;12.48;;
42538;SDS011;28173;51.376;6.760;2022-10-13T06:22:55;18.77;;;11.88;;
42538;SDS011;28173;51.376;6.760;2022-10-13T06:25:22;14.95;;;10.55;;
42538;SDS011;28173;51.376;6.760;2022-10-13T06:27:48;18.98;;;10.52;;
42538;SDS011;28173;51.376;6.760;2022-10-13T06:30:15;20.92;;;11.77;;
42538;SDS011;28173;51.376;6.760;2022-10-13T06:32:42;15.93;;;10.50;;
42538;SDS011;28173;51.376;6.760;2022-10-13T06:35:08;18.92;;;9.75;;
42538;SDS011;28173;51.376;6.760;2022-10-13T06:37:35;21.33;;;11.10;;
42538;SDS011;28173;51.376;6.760;2022-10-13T06:40:02;20.48;;;10.55;;
42538;SDS011;28173;51.376;6.760;2022-10-13T06:42:30;16.48;;;10.30;;
42538;SDS011;28173;51.376;6.760;2022-10-13T06:45:07;18.75;;;11.40;;
42538;SDS011;28173;51.376;6.760;2022-10-13T06:47:34;15.77;;;10.68;;
42538;SDS011;28173;51.376;6.760;2022-10-13T06:50:01;17.70;;;11.15;;
42538;SDS011;28173;51.376;6.760;2022-10-13T06:52:27;18.40;;;10.68;;
42538;SDS011;28173;51.376;6.760;2022-10-13T06:54:54;24.45;;;11.02;;
42538;SDS011;28173;51.376;6.760;2022-10-13T06:57:21;19.15;;;11.05;;
42538;SDS011;28173;51.376;6.760;2022-10-13T06:59:47;21.50;;;11.23;;
42538;SDS011;28173;51.376;6.760;2022-10-13T07:02:14;18.38;;;11.00;;
42538;SDS011;28173;51.376;6.760;2022-10-13T07:04:40;23.90;;;10.55;;
42538;SDS011;28173;51.376;6.760;2022-10-13T07:07:07;21.10;;;10.77;;
42538;SDS011;28173;51.376;6.760;2022-10-13T07:09:34;25.50;;;11.13;;
42538;SDS011;28173;51.376;6.760;2022-10-13T07:12:01;20.27;;;10.63;;
42538;SDS011;28173;51.376;6.760;2022-10-13T07:14:28;19.38;;;10.90;;
42538;SDS011;28173;51.376;6.760;2022-10-13T07:16:55;18.42;;;10.50;;
42538;SDS011;28173;51.376;6.760;2022-10-13T07:19:21;20.90;;;11.00;;
42538;SDS011;28173;51.376;6.760;2022-10-13T07:21:48;20.13;;;11.13;;
42538;SDS011;28173;51.376;6.760;2022-10-13T07:24:15;22.40;;;10.57;;
42538;SDS011;28173;51.376;6.760;2022-10-13T07:26:41;21.38;;;10.75;;
42538;SDS011;28173;51.376;6.760;2022-10-13T07:29:08;23.48;;;11.25;;
42538;SDS011;28173;51.376;6.760;2022-10-13T07:31:34;27.10;;;11.27;;
42538;SDS011;28173;51.376;6.760;2022-10-13T07:34:01;15.82;;;10.27;;
42538;SDS011;28173;51.376;6.760;2022-10-13T07:36:30;18.42;;;10.80;;
42538;SDS011;28173;51.376;6.760;2022-10-13T07:38:59;20.55;;;10.93;;
42538;SDS011;28173;51.376;6.760;2022-10-13T07:41:26;21.88;;;11.00;;
42538;SDS011;28173;51.376;6.760;2022-10-13T07:43:54;18.00;;;10.75;;
42538;SDS011;28173;51.376;6.760;2022-10-13T07:46:21;22.42;;;11.73;;
42538;SDS011;28173;51.376;6.760;2022-10-13T07:48:48;19.60;;;10.63;;
42538;SDS011;28173;51.376;6.760;2022-10-13T07:51:15;16.35;;;10.40;;
42538;SDS011;28173;51.376;6.760;2022-10-13T07:53:42;19.73;;;11.00;;
42538;SDS011;28173;51.376;6.760;2022-10-13T07:56:12;15.25;;;10.43;;
42538;SDS011;28173;51.376;6.760;2022-10-13T07:58:44;17.83;;;10.68;;
42538;SDS011;28173;51.376;6.760;2022-10-13T08:01:12;19.10;;;11.70;;
42538;SDS011;28173;51.376;6.760;2022-10-13T08:03:40;18.90;;;10.65;;
42538;SDS011;28173;51.376;6.760;2022-10-13T08:06:14;19.92;;;9.82;;
42538;SDS011;28173;51.376;6.760;2022-10-13T08:08:42;22.58;;;9.60;;
42538;SDS011;28173;51.376;6.760;2022-10-13T08:11:11;22.65;;;10.50;;
42538;SDS011;28173;51.376;6.760;2022-10-13T08:13:44;18.20;;;10.57;;
42538;SDS011;28173;51.376;6.760;2022-10-13T08:16:14;17.10;;;9.52;;
42538;SDS011;28173;51.376;6.760;2022-10-13T08:18:41;19.10;;;10.65;;
42538;SDS011;28173;51.376;6.760;2022-10-13T08:21:08;18.30;;;10.40;;
42538;SDS011;28173;51.376;6.760;2022-10-13T08:23:59;19.63;;;9.38;;
42538;SDS011;28173;51.376;6.760;2022-10-13T08:26:26;16.50;;;10.52;;
42538;SDS011;28173;51.376;6.760;2022-10-13T08:28:53;17.73;;;10.75;;
42538;SDS011;28173;51.376;6.760;2022-10-13T08:31:40;17.10;;;10.30;;
42538;SDS011;28173;51.376;6.760;2022-10-13T08:34:08;20.52;;;10.75;;
42538;SDS011;28173;51.376;6.760;2022-10-13T08:36:36;15.45;;;10.15;;
42538;SDS011;28173;51.376;6.760;2022-10-13T08:39:03;18.58;;;10.15;;
42538;SDS011;28173;51.376;6.760;2022-10-13T08:41:31;18.38;;;11.13;;
42538;SDS011;28173;51.376;6.760;2022-10-13T08:44:03;17.40;;;10.38;;
42538;SDS011;28173;51.376;6.760;2022-10-13T08:47:04;16.42;;;10.13;;
42538;SDS011;28173;51.376;6.760;2022-10-13T08:49:32;17.70;;;9.93;;
42538;SDS011;28173;51.376;6.760;2022-10-13T08:52:02;23.30;;;10.23;;
42538;SDS011;28173;51.376;6.760;2022-10-13T08:54:30;15.55;;;10.27;;
42538;SDS011;28173;51.376;6.760;2022-10-13T08:56:57;20.35;;;10.30;;
42538;SDS011;28173;51.376;6.760;2022-10-13T08:59:29;21.05;;;11.05;;
42538;SDS011;28173;51.376;6.760;2022-10-13T09:01:56;17.48;;;9.75;;
42538;SDS011;28173;51.376;6.760;2022-10-13T09:04:25;16.80;;;11.02;;
42538;SDS011;28173;51.376;6.760;2022-10-13T09:06:57;23.35;;;10.48;;
42538;SDS011;28173;51.376;6.760;2022-10-13T09:09:28;15.07;;;9.55;;
42538;SDS011;28173;51.376;6.760;2022-10-13T09:11:55;17.38;;;9.88;;
42538;SDS011;28173;51.376;6.760;2022-10-13T09:14:26;16.95;;;10.70;;
42538;SDS011;28173;51.376;6.760;2022-10-13T09:16:54;18.98;;;9.90;;
42538;SDS011;28173;51.376;6.760;2022-10-13T09:19:32;19.63;;;10.05;;
42538;SDS011;28173;51.376;6.760;2022-10-13T09:22:18;19.63;;;10.75;;
42538;SDS011;28173;51.376;6.760;2022-10-13T09:35:29;20.80;;;9.45;;
42538;SDS011;28173;51.376;6.760;2022-10-13T09:38:19;17.42;;;9.48;;
42538;SDS011;28173;51.376;6.760;2022-10-13T09:41:00;20.58;;;9.93;;
42538;SDS011;28173;51.376;6.760;2022-10-13T09:49:32;16.83;;;10.52;;
42538;SDS011;28173;51.376;6.760;2022-10-13T09:57:21;14.15;;;9.70;;
42538;SDS011;28173;51.376;6.760;2022-10-13T10:02:44;19.85;;;9.55;;
42538;SDS011;28173;51.376;6.760;2022-10-13T10:07:59;19.30;;;9.77;;
42538;SDS011;28173;51.376;6.760;2022-10-13T10:13:02;17.35;;;9.02;;
42538;SDS011;28173;51.376;6.760;2022-10-13T10:15:41;19.27;;;9.63;;
42538;SDS011;28173;51.376;6.760;2022-10-13T10:18:12;19.35;;;10.00;;
42538;SDS011;28173;51.376;6.760;2022-10-13T10:23:32;19.17;;;9.02;;
42538;SDS011;28173;51.376;6.760;2022-10-13T10:26:08;21.92;;;9.88;;
42538;SDS011;28173;51.376;6.760;2022-10-13T10:34:23;15.32;;;9.18;;
42538;SDS011;28173;51.376;6.760;2022-10-13T10:39:57;18.00;;;9.32;;
42538;SDS011;28173;51.376;6.760;2022-10-13T10:45:19;14.55;;;9.55;;
42538;SDS011;28173;51.376;6.760;2022-10-13T10:47:49;16.70;;;9.73;;
42538;SDS011;28173;51.376;6.760;2022-10-13T10:50:18;16.15;;;9.30;;
42538;SDS011;28173;51.376;6.760;2022-10-13T11:00:48;22.90;;;9.57;;
42538;SDS011;28173;51.376;6.760;2022-10-13T11:08:51;14.80;;;9.52;;
42538;SDS011;28173;51.376;6.760;2022-10-13T11:16:34;16.83;;;9.73;;
42538;SDS011;28173;51.376;6.760;2022-10-13T11:19:28;19.10;;;10.00;;
42538;SDS011;28173;51.376;6.760;2022-10-13T11:34:56;22.08;;;8.70;;
42538;SDS011;28173;51.376;6.760;2022-10-13T11:41:21;18.95;;;9.18;;
42538;SDS011;28173;51.376;6.760;2022-10-13T11:43:55;15.20;;;8.15;;
42538;SDS011;28173;51.376;6.760;2022-10-13T11:46:48;23.17;;;8.85;;
42538;SDS011;28173;51.376;6.760;2022-10-13T11:55:11;14.27;;;7.38;;
42538;SDS011;28173;51.376;6.760;2022-10-13T11:58:34;14.45;;;7.60;;
42538;SDS011;28173;51.376;6.760;2022-10-13T12:03:45;13.88;;;6.70;;
42538;SDS011;28173;51.376;6.760;2022-10-13T12:09:17;13.82;;;5.85;;
42538;SDS011;28173;51.376;6.760;2022-10-13T12:11:44;10.82;;;5.28;;
42538;SDS011;28173;51.376;6.760;2022-10-13T12:14:20;10.55;;;6.05;;
42538;SDS011;28173;51.376;6.760;2022-10-13T12:16:58;11.93;;;6.15;;
42538;SDS011;28173;51.376;6.760;2022-10-13T12:19:28;20.98;;;6.10;;
42538;SDS011;28173;51.376;6.760;2022-10-13T12:21:58;11.70;;;5.85;;
42538;SDS011;28173;51.376;6.760;2022-10-13T12:24:27;12.80;;;6.45;;
42538;SDS011;28173;51.376;6.760;2022-10-13T12:26:55;13.68;;;6.65;;
42538;SDS011;28173;51.376;6.760;2022-10-13T12:29:26;13.93;;;7.53;;
42538;SDS011;28173;51.376;6.760;2022-10-13T12:31:59;9.43;;;5.82;;
42538;SDS011;28173;51.376;6.760;2022-10-13T12:34:29;10.23;;;6.32;;
42538;SDS011;28173;51.376;6.760;2022-10-13T12:36:59;8.13;;;5.63;;
42538;SDS011;28173;51.376;6.760;2022-10-13T12:39:28;12.15;;;5.88;;
42538;SDS011;28173;51.376;6.760;2022-10-13T12:41:56;11.43;;;6.15;;
42538;SDS011;28173;51.376;6.760;2022-10-13T12:44:24;11.00;;;6.68;;
42538;SDS011;28173;51.376;6.760;2022-10-13T12:46:56;13.38;;;6.38;;
42538;SDS011;28173;51.376;6.760;2022-10-13T12:49:26;11.10;;;6.55;;
42538;SDS011;28173;51.376;6.760;2022-10-13T12:52:15;16.90;;;6.60;;
42538;SDS011;28173;51.376;6.760;2022-10-13T12:54:55;15.25;;;6.68;;
42538;SDS011;28173;51.376;6.760;2022-10-13T13:00:03;8.60;;;6.00;;
42538;SDS011;28173;51.376;6.760;2022-10-13T13:02:33;10.40;;;5.75;;
42538;SDS011;28173;51.376;6.760;2022-10-13T13:05:01;10.88;;;5.50;;
42538;SDS011;28173;51.376;6.760;2022-10-13T13:07:32;12.30;;;5.32;;
42538;SDS011;28173;51.376;6.760;2022-10-13T13:12:43;8.27;;;5.50;;
42538;SDS011;28173;51.376;6.760;2022-10-13T13:17:54;9.60;;;5.15;;
42538;SDS011;28173;51.376;6.760;2022-10-13T13:20:29;10.68;;;6.47;;
42538;SDS011;28173;51.376;6.760;2022-10-13T13:22:57;10.07;;;5.60;;
42538;SDS011;28173;51.376;6.760;2022-10-13T13:25:30;12.25;;;5.15;;
42538;SDS011;28173;51.376;6.760;2022-10-13T13:27:58;9.15;;;5.00;;
42538;SDS011;28173;51.376;6.760;2022-10-13T13:30:32;9.40;;;4.60;;
42538;SDS011;28173;51.376;6.760;2022-10-13T13:33:06;11.55;;;4.68;;
42538;SDS011;28173;51.376;6.760;2022-10-13T13:35:36;9.65;;;5.22;;
42538;SDS011;28173;51.376;6.760;2022-10-13T13:38:08;8.95;;;5.15;;
42538;SDS011;28173;51.376;6.760;2022-10-13T13:40:37;10.88;;;4.65;;
42538;SDS011;28173;51.376;6.760;2022-10-13T13:43:03;12.73;;;5.10;;
42538;SDS011;28173;51.376;6.760;2022-10-13T13:45:31;11.05;;;5.35;;
42538;SDS011;28173;51.376;6.760;2022-10-13T13:48:00;9.00;;;5.30;;
42538;SDS011;28173;51.376;6.760;2022-10-13T13:50:31;10.45;;;5.70;;
42538;SDS011;28173;51.376;6.760;2022-10-13T13:52:59;9.55;;;5.32;;
42538;SDS011;28173;51.376;6.760;2022-10-13T13:55:26;10.52;;;5.50;;
42538;SDS011;28173;51.376;6.760;2022-10-13T13:57:55;12.18;;;5.72;;
42538;SDS011;28173;51.376;6.760;2022-10-13T14:00:22;13.23;;;5.80;;
42538;SDS011;28173;51.376;6.760;2022-10-13T14:03:02;7.55;;;5.30;;
42538;SDS011;28173;51.376;6.760;2022-10-13T14:05:31;12.95;;;5.95;;
42538;SDS011;28173;51.376;6.760;2022-10-13T14:07:58;12.98;;;6.82;;
42538;SDS011;28173;51.376;6.760;2022-10-13T14:10:25;11.88;;;6.90;;
42538;SDS011;28173;51.376;6.760;2022-10-13T14:12:52;17.30;;;6.60;;
42538;SDS011;28173;51.376;6.760;2022-10-13T14:15:18;13.48;;;7.22;;
42538;SDS011;28173;51.376;6.760;2022-10-13T14:17:54;10.27;;;6.60;;
42538;SDS011;28173;51.376;6.760;2022-10-13T14:20:20;21.20;;;6.63;;
42538;SDS011;28173;51.376;6.760;2022-10-13T14:22:48;12.25;;;7.13;;
42538;SDS011;28173;51.376;6.760;2022-10-13T14:25:15;11.65;;;8.10;;
42538;SDS011;28173;51.376;6.760;2022-10-13T14:27:41;13.05;;;7.13;;
42538;SDS011;28173;51.376;6.760;2022-10-13T14:30:11;16.40;;;7.30;;
42538;SDS011;28173;51.376;6.760;2022-10-13T14:32:38;15.75;;;7.80;;
42538;SDS011;28173;51.376;6.760;2022-10-13T14:35:05;15.45;;;7.82;;
42538;SDS011;28173;51.376;6.760;2022-10-13T14:37:32;18.60;;;7.50;;
42538;SDS011;28173;51.376;6.760;2022-10-13T14:39:59;14.27;;;7.57;;
42538;SDS011;28173;51.376;6.760;2022-10-13T14:42:26;12.38;;;8.55;;
42538;SDS011;28173;51.376;6.760;2022-10-13T14:44:53;14.15;;;8.43;;
42538;SDS011;28173;51.376;6.760;2022-10-13T14:47:19;17.27;;;8.82;;
42538;SDS011;28173;51.376;6.760;2022-10-13T14:49:46;19.75;;;8.82;;
42538;SDS011;28173;51.376;6.760;2022-10-13T14:52:13;18.40;;;8.32;;
42538;SDS011;28173;51.376;6.760;2022-10-13T14:54:40;15.00;;;8.15;;
42538;SDS011;28173;51.376;6.760;2022-10-13T14:57:10;15.05;;;9.65;;
42538;SDS011;28173;51.376;6.760;2022-10-13T14:59:55;15.65;;;8.60;;
42538;SDS011;28173;51.376;6.760;2022-10-13T15:02:27;14.60;;;8.63;;
42538;SDS011;28173;51.376;6.760;2022-10-13T15:04:54;15.35;;;9.63;;
42538;SDS011;28173;51.376;6.760;2022-10-13T15:07:20;16.17;;;9.13;;
42538;SDS011;28173;51.376;6.760;2022-10-13T15:09:47;14.32;;;9.48;;
42538;SDS011;28173;51.376;6.760;2022-10-13T15:12:30;17.63;;;9.52;;
42538;SDS011;28173;51.376;6.760;2022-10-13T15:14:57;18.80;;;8.52;;
42538;SDS011;28173;51.376;6.760;2022-10-13T15:17:23;17.20;;;8.60;;
42538;SDS011;28173;51.376;6.760;2022-10-13T15:19:50;17.20;;;8.48;;
42538;SDS011;28173;51.376;6.760;2022-10-13T15:22:16;13.80;;;8.77;;
42538;SDS011;28173;51.376;6.760;2022-10-13T15:24:44;14.95;;;8.88;;
42538;SDS011;28173;51.376;6.760;2022-10-13T15:27:10;15.52;;;8.38;;
42538;SDS011;28173;51.376;6.760;2022-10-13T15:29:37;13.95;;;9.02;;
42538;SDS011;28173;51.376;6.760;2022-10-13T15:32:08;19.23;;;8.65;;
42538;SDS011;28173;51.376;6.760;2022-10-13T15:34:37;14.10;;;8.73;;
42538;SDS011;28173;51.376;6.760;2022-10-13T15:37:05;14.80;;;9.85;;
42538;SDS011;28173;51.376;6.760;2022-10-13T15:39:32;12.88;;;8.77;;
42538;SDS011;28173;51.376;6.760;2022-10-13T15:42:01;18.48;;;9.63;;
42538;SDS011;28173;51.376;6.760;2022-10-13T15:44:28;17.73;;;10.10;;
42538;SDS011;28173;51.376;6.760;2022-10-13T15:47:18;19.88;;;11.32;;
42538;SDS011;28173;51.376;6.760;2022-10-13T15:50:14;16.98;;;10.70;;
42538;SDS011;28173;51.376;6.760;2022-10-13T15:52:41;17.13;;;10.30;;
42538;SDS011;28173;51.376;6.760;2022-10-13T15:55:09;19.88;;;11.40;;
42538;SDS011;28173;51.376;6.760;2022-10-13T15:57:37;17.20;;;10.27;;
42538;SDS011;28173;51.376;6.760;2022-10-13T16:00:05;18.40;;;9.63;;
42538;SDS011;28173;51.376;6.760;2022-10-13T16:02:37;15.23;;;9.95;;
42538;SDS011;28173;51.376;6.760;2022-10-13T16:05:06;16.63;;;9.93;;
42538;SDS011;28173;51.376;6.760;2022-10-13T16:07:34;15.95;;;9.30;;
42538;SDS011;28173;51.376;6.760;2022-10-13T16:10:00;17.38;;;10.40;;
42538;SDS011;28173;51.376;6.760;2022-10-13T16:12:28;17.67;;;10.90;;
42538;SDS011;28173;51.376;6.760;2022-10-13T16:14:55;18.88;;;10.73;;
42538;SDS011;28173;51.376;6.760;2022-10-13T16:17:21;21.23;;;10.95;;
42538;SDS011;28173;51.376;6.760;2022-10-13T16:19:48;20.05;;;11.55;;
42538;SDS011;28173;51.376;6.760;2022-10-13T16:22:15;27.65;;;12.18;;
42538;SDS011;28173;51.376;6.760;2022-10-13T16:24:41;18.17;;;11.65;;
42538;SDS011;28173;51.376;6.760;2022-10-13T16:27:08;19.63;;;12.05;;
42538;SDS011;28173;51.376;6.760;2022-10-13T16:29:35;19.50;;;11.70;;
42538;SDS011;28173;51.376;6.760;2022-10-13T16:32:01;20.92;;;12.25;;
42538;SDS011;28173;51.376;6.760;2022-10-13T16:34:28;21.88;;;14.18;;
42538;SDS011;28173;51.376;6.760;2022-10-13T16:36:55;23.83;;;13.48;;
42538;SDS011;28173;51.376;6.760;2022-10-13T16:39:21;23.90;;;12.55;;
42538;SDS011;28173;51.376;6.760;2022-10-13T16:41:49;18.85;;;10.65;;
42538;SDS011;28173;51.376;6.760;2022-10-13T16:44:23;12.00;;;8.98;;
42538;SDS011;28173;51.376;6.760;2022-10-13T16:46:49;18.90;;;9.55;;
42538;SDS011;28173;51.376;6.760;2022-10-13T16:49:19;14.93;;;9.50;;
42538;SDS011;28173;51.376;6.760;2022-10-13T16:51:45;14.35;;;10.10;;
42538;SDS011;28173;51.376;6.760;2022-10-13T16:54:12;14.85;;;9.43;;
42538;SDS011;28173;51.376;6.760;2022-10-13T16:56:38;15.27;;;9.18;;